sensor_id;sensor_type;location;lat;lon;timestamp;P1;durP1;ratioP1;P2;durP2;ratioP2
52898;SDS011;38763;53.096;6.062;2023-07-31T00:02:17;7.20;;;2.72;;
52898;SDS011;38763;53.096;6.062;2023-07-31T00:04:42;9.52;;;2.33;;
52898;SDS011;38763;53.096;6.062;2023-07-31T00:07:08;8.75;;;2.30;;
52898;SDS011;38763;53.096;6.062;2023-07-31T00:09:33;8.52;;;2.45;;
52898;SDS011;38763;53.096;6.062;2023-07-31T00:11:59;8.45;;;2.10;;
52898;SDS011;38763;53.096;6.062;2023-07-31T00:14:25;7.68;;;2.28;;
52898;SDS011;38763;53.096;6.062;2023-07-31T00:16:51;5.70;;;2.22;;
52898;SDS011;38763;53.096;6.062;2023-07-31T00:19:16;5.20;;;1.88;;
52898;SDS011;38763;53.096;6.062;2023-07-31T00:21:43;5.80;;;2.30;;
52898;SDS011;38763;53.096;6.062;2023-07-31T00:24:09;5.93;;;2.50;;
52898;SDS011;38763;53.096;6.062;2023-07-31T00:26:35;5.30;;;1.90;;
52898;SDS011;38763;53.096;6.062;2023-07-31T00:29:00;8.85;;;2.10;;
52898;SDS011;38763;53.096;6.062;2023-07-31T00:31:26;7.78;;;2.08;;
52898;SDS011;38763;53.096;6.062;2023-07-31T00:33:52;6.32;;;2.30;;
52898;SDS011;38763;53.096;6.062;2023-07-31T00:36:17;6.68;;;2.42;;
52898;SDS011;38763;53.096;6.062;2023-07-31T00:38:43;6.57;;;2.38;;
52898;SDS011;38763;53.096;6.062;2023-07-31T00:41:09;10.15;;;2.30;;
52898;SDS011;38763;53.096;6.062;2023-07-31T00:43:34;7.40;;;2.45;;
52898;SDS011;38763;53.096;6.062;2023-07-31T00:46:00;6.68;;;2.65;;
52898;SDS011;38763;53.096;6.062;2023-07-31T00:48:26;7.88;;;2.80;;
52898;SDS011;38763;53.096;6.062;2023-07-31T00:50:52;6.88;;;2.90;;
52898;SDS011;38763;53.096;6.062;2023-07-31T00:53:18;5.07;;;2.35;;
52898;SDS011;38763;53.096;6.062;2023-07-31T00:55:43;6.38;;;2.40;;
52898;SDS011;38763;53.096;6.062;2023-07-31T00:58:10;7.13;;;2.20;;
52898;SDS011;38763;53.096;6.062;2023-07-31T01:00:35;5.82;;;2.28;;
52898;SDS011;38763;53.096;6.062;2023-07-31T01:03:01;6.88;;;2.35;;
52898;SDS011;38763;53.096;6.062;2023-07-31T01:11:02;4.78;;;1.63;;
52898;SDS011;38763;53.096;6.062;2023-07-31T01:13:40;4.43;;;1.90;;
52898;SDS011;38763;53.096;6.062;2023-07-31T01:16:07;5.20;;;2.08;;
52898;SDS011;38763;53.096;6.062;2023-07-31T01:18:32;5.50;;;2.00;;
52898;SDS011;38763;53.096;6.062;2023-07-31T01:21:03;5.97;;;2.15;;
52898;SDS011;38763;53.096;6.062;2023-07-31T01:26:34;4.63;;;1.65;;
52898;SDS011;38763;53.096;6.062;2023-07-31T01:31:37;6.60;;;1.60;;
52898;SDS011;38763;53.096;6.062;2023-07-31T01:34:04;7.32;;;2.00;;
52898;SDS011;38763;53.096;6.062;2023-07-31T01:36:33;4.68;;;1.88;;
52898;SDS011;38763;53.096;6.062;2023-07-31T01:38:59;5.68;;;1.90;;
52898;SDS011;38763;53.096;6.062;2023-07-31T01:41:26;5.38;;;1.90;;
52898;SDS011;38763;53.096;6.062;2023-07-31T01:43:52;6.35;;;1.85;;
52898;SDS011;38763;53.096;6.062;2023-07-31T01:46:17;4.75;;;1.90;;
52898;SDS011;38763;53.096;6.062;2023-07-31T01:48:43;6.10;;;1.98;;
52898;SDS011;38763;53.096;6.062;2023-07-31T01:51:09;5.53;;;2.25;;
52898;SDS011;38763;53.096;6.062;2023-07-31T01:53:34;8.10;;;2.20;;
52898;SDS011;38763;53.096;6.062;2023-07-31T01:56:00;5.78;;;2.10;;
52898;SDS011;38763;53.096;6.062;2023-07-31T01:58:26;6.13;;;2.28;;
52898;SDS011;38763;53.096;6.062;2023-07-31T02:00:51;10.30;;;2.85;;
52898;SDS011;38763;53.096;6.062;2023-07-31T02:03:17;7.38;;;2.22;;
52898;SDS011;38763;53.096;6.062;2023-07-31T02:05:49;4.80;;;2.40;;
52898;SDS011;38763;53.096;6.062;2023-07-31T02:08:15;6.00;;;2.20;;
52898;SDS011;38763;53.096;6.062;2023-07-31T02:10:41;9.18;;;2.30;;
52898;SDS011;38763;53.096;6.062;2023-07-31T02:13:07;5.03;;;1.90;;
52898;SDS011;38763;53.096;6.062;2023-07-31T02:15:32;8.02;;;2.03;;
52898;SDS011;38763;53.096;6.062;2023-07-31T02:17:58;7.13;;;2.20;;
52898;SDS011;38763;53.096;6.062;2023-07-31T02:20:24;5.50;;;1.80;;
52898;SDS011;38763;53.096;6.062;2023-07-31T02:22:49;5.20;;;2.00;;
52898;SDS011;38763;53.096;6.062;2023-07-31T02:25:15;5.32;;;2.22;;
52898;SDS011;38763;53.096;6.062;2023-07-31T02:27:41;10.15;;;1.92;;
52898;SDS011;38763;53.096;6.062;2023-07-31T02:30:07;6.10;;;2.13;;
52898;SDS011;38763;53.096;6.062;2023-07-31T02:32:33;5.72;;;2.50;;
52898;SDS011;38763;53.096;6.062;2023-07-31T02:34:58;7.30;;;2.05;;
52898;SDS011;38763;53.096;6.062;2023-07-31T02:37:24;4.60;;;2.00;;
52898;SDS011;38763;53.096;6.062;2023-07-31T02:39:50;5.63;;;2.70;;
52898;SDS011;38763;53.096;6.062;2023-07-31T02:42:16;6.28;;;2.15;;
52898;SDS011;38763;53.096;6.062;2023-07-31T02:44:42;6.88;;;2.20;;
52898;SDS011;38763;53.096;6.062;2023-07-31T02:47:07;5.90;;;2.28;;
52898;SDS011;38763;53.096;6.062;2023-07-31T02:49:33;5.40;;;2.00;;
52898;SDS011;38763;53.096;6.062;2023-07-31T02:51:58;6.82;;;2.33;;
52898;SDS011;38763;53.096;6.062;2023-07-31T02:54:24;8.93;;;2.50;;
52898;SDS011;38763;53.096;6.062;2023-07-31T02:56:50;6.13;;;1.95;;
52898;SDS011;38763;53.096;6.062;2023-07-31T02:59:16;5.28;;;2.42;;
52898;SDS011;38763;53.096;6.062;2023-07-31T03:01:42;4.57;;;2.30;;
52898;SDS011;38763;53.096;6.062;2023-07-31T03:04:08;6.47;;;2.28;;
52898;SDS011;38763;53.096;6.062;2023-07-31T03:06:34;5.28;;;2.30;;
52898;SDS011;38763;53.096;6.062;2023-07-31T03:08:59;5.85;;;2.00;;
52898;SDS011;38763;53.096;6.062;2023-07-31T03:11:25;6.15;;;2.05;;
52898;SDS011;38763;53.096;6.062;2023-07-31T03:13:50;6.68;;;1.95;;
52898;SDS011;38763;53.096;6.062;2023-07-31T03:16:16;3.88;;;1.80;;
52898;SDS011;38763;53.096;6.062;2023-07-31T03:18:42;4.88;;;1.80;;
52898;SDS011;38763;53.096;6.062;2023-07-31T03:21:07;6.93;;;1.60;;
52898;SDS011;38763;53.096;6.062;2023-07-31T03:23:33;4.53;;;1.50;;
52898;SDS011;38763;53.096;6.062;2023-07-31T03:25:59;5.30;;;1.42;;
52898;SDS011;38763;53.096;6.062;2023-07-31T03:28:28;6.15;;;1.60;;
52898;SDS011;38763;53.096;6.062;2023-07-31T03:30:54;4.95;;;1.35;;
52898;SDS011;38763;53.096;6.062;2023-07-31T03:33:20;3.10;;;1.50;;
52898;SDS011;38763;53.096;6.062;2023-07-31T03:35:46;4.70;;;1.30;;
52898;SDS011;38763;53.096;6.062;2023-07-31T03:38:12;6.18;;;1.38;;
52898;SDS011;38763;53.096;6.062;2023-07-31T03:40:38;3.08;;;1.70;;
52898;SDS011;38763;53.096;6.062;2023-07-31T03:43:04;3.35;;;1.50;;
52898;SDS011;38763;53.096;6.062;2023-07-31T03:45:30;4.05;;;1.77;;
52898;SDS011;38763;53.096;6.062;2023-07-31T03:47:56;4.03;;;1.73;;
52898;SDS011;38763;53.096;6.062;2023-07-31T03:50:22;3.30;;;1.60;;
52898;SDS011;38763;53.096;6.062;2023-07-31T03:52:48;4.07;;;1.80;;
52898;SDS011;38763;53.096;6.062;2023-07-31T03:55:13;5.28;;;1.58;;
52898;SDS011;38763;53.096;6.062;2023-07-31T03:57:39;4.63;;;1.45;;
52898;SDS011;38763;53.096;6.062;2023-07-31T04:00:05;5.50;;;1.40;;
52898;SDS011;38763;53.096;6.062;2023-07-31T04:02:31;4.25;;;1.42;;
52898;SDS011;38763;53.096;6.062;2023-07-31T04:04:56;2.65;;;1.30;;
52898;SDS011;38763;53.096;6.062;2023-07-31T04:07:22;3.85;;;1.27;;
52898;SDS011;38763;53.096;6.062;2023-07-31T04:09:48;3.05;;;1.20;;
52898;SDS011;38763;53.096;6.062;2023-07-31T04:12:13;4.20;;;1.65;;
52898;SDS011;38763;53.096;6.062;2023-07-31T04:14:39;3.08;;;1.30;;
52898;SDS011;38763;53.096;6.062;2023-07-31T04:17:05;4.68;;;1.52;;
52898;SDS011;38763;53.096;6.062;2023-07-31T04:19:30;2.67;;;1.50;;
52898;SDS011;38763;53.096;6.062;2023-07-31T04:21:56;2.40;;;1.50;;
52898;SDS011;38763;53.096;6.062;2023-07-31T04:24:22;5.20;;;1.60;;
52898;SDS011;38763;53.096;6.062;2023-07-31T04:26:50;3.50;;;1.67;;
52898;SDS011;38763;53.096;6.062;2023-07-31T04:29:16;4.18;;;1.73;;
52898;SDS011;38763;53.096;6.062;2023-07-31T04:31:41;2.97;;;1.50;;
52898;SDS011;38763;53.096;6.062;2023-07-31T04:34:07;5.10;;;1.65;;
52898;SDS011;38763;53.096;6.062;2023-07-31T04:36:33;4.35;;;1.65;;
52898;SDS011;38763;53.096;6.062;2023-07-31T04:38:59;3.35;;;1.40;;
52898;SDS011;38763;53.096;6.062;2023-07-31T04:41:25;8.05;;;1.90;;
52898;SDS011;38763;53.096;6.062;2023-07-31T04:43:51;5.18;;;2.00;;
52898;SDS011;38763;53.096;6.062;2023-07-31T04:46:16;9.05;;;2.70;;
52898;SDS011;38763;53.096;6.062;2023-07-31T04:48:42;7.70;;;2.70;;
52898;SDS011;38763;53.096;6.062;2023-07-31T04:51:08;8.88;;;2.80;;
52898;SDS011;38763;53.096;6.062;2023-07-31T04:53:36;13.73;;;3.75;;
52898;SDS011;38763;53.096;6.062;2023-07-31T04:56:02;11.55;;;3.15;;
52898;SDS011;38763;53.096;6.062;2023-07-31T04:58:28;15.38;;;3.72;;
52898;SDS011;38763;53.096;6.062;2023-07-31T05:00:54;11.50;;;3.20;;
52898;SDS011;38763;53.096;6.062;2023-07-31T05:03:19;11.02;;;2.90;;
52898;SDS011;38763;53.096;6.062;2023-07-31T05:05:45;8.13;;;2.45;;
52898;SDS011;38763;53.096;6.062;2023-07-31T05:08:11;5.18;;;2.38;;
52898;SDS011;38763;53.096;6.062;2023-07-31T05:10:37;7.03;;;2.40;;
52898;SDS011;38763;53.096;6.062;2023-07-31T05:13:02;7.75;;;2.42;;
52898;SDS011;38763;53.096;6.062;2023-07-31T05:15:28;8.65;;;2.60;;
52898;SDS011;38763;53.096;6.062;2023-07-31T05:17:54;4.82;;;2.17;;
52898;SDS011;38763;53.096;6.062;2023-07-31T05:20:20;7.90;;;2.50;;
52898;SDS011;38763;53.096;6.062;2023-07-31T05:22:46;9.20;;;2.78;;
52898;SDS011;38763;53.096;6.062;2023-07-31T05:25:12;8.57;;;2.70;;
52898;SDS011;38763;53.096;6.062;2023-07-31T05:27:37;7.38;;;2.90;;
52898;SDS011;38763;53.096;6.062;2023-07-31T05:30:03;9.10;;;3.10;;
52898;SDS011;38763;53.096;6.062;2023-07-31T05:32:30;11.68;;;3.45;;
52898;SDS011;38763;53.096;6.062;2023-07-31T05:34:56;10.60;;;3.20;;
52898;SDS011;38763;53.096;6.062;2023-07-31T05:37:21;9.73;;;3.40;;
52898;SDS011;38763;53.096;6.062;2023-07-31T05:39:47;10.70;;;4.28;;
52898;SDS011;38763;53.096;6.062;2023-07-31T05:42:13;13.20;;;4.50;;
52898;SDS011;38763;53.096;6.062;2023-07-31T05:44:39;16.45;;;4.68;;
52898;SDS011;38763;53.096;6.062;2023-07-31T05:47:04;21.80;;;6.15;;
52898;SDS011;38763;53.096;6.062;2023-07-31T05:49:30;19.40;;;5.45;;
52898;SDS011;38763;53.096;6.062;2023-07-31T05:51:56;26.48;;;6.90;;
52898;SDS011;38763;53.096;6.062;2023-07-31T05:54:21;28.15;;;7.10;;
52898;SDS011;38763;53.096;6.062;2023-07-31T05:56:47;26.80;;;7.07;;
52898;SDS011;38763;53.096;6.062;2023-07-31T05:59:13;25.02;;;7.95;;
52898;SDS011;38763;53.096;6.062;2023-07-31T06:01:38;31.90;;;7.45;;
52898;SDS011;38763;53.096;6.062;2023-07-31T06:04:04;26.70;;;6.88;;
52898;SDS011;38763;53.096;6.062;2023-07-31T06:06:30;33.90;;;7.93;;
52898;SDS011;38763;53.096;6.062;2023-07-31T06:08:56;33.28;;;7.32;;
52898;SDS011;38763;53.096;6.062;2023-07-31T06:11:22;32.17;;;7.85;;
52898;SDS011;38763;53.096;6.062;2023-07-31T06:13:47;29.85;;;7.85;;
52898;SDS011;38763;53.096;6.062;2023-07-31T06:16:14;28.13;;;7.38;;
52898;SDS011;38763;53.096;6.062;2023-07-31T06:18:40;27.17;;;7.25;;
52898;SDS011;38763;53.096;6.062;2023-07-31T06:21:06;26.05;;;6.65;;
52898;SDS011;38763;53.096;6.062;2023-07-31T06:23:32;23.10;;;6.85;;
52898;SDS011;38763;53.096;6.062;2023-07-31T06:25:58;31.20;;;6.53;;
52898;SDS011;38763;53.096;6.062;2023-07-31T06:28:27;28.00;;;6.40;;
52898;SDS011;38763;53.096;6.062;2023-07-31T06:30:54;25.13;;;7.05;;
52898;SDS011;38763;53.096;6.062;2023-07-31T06:33:20;19.70;;;6.00;;
52898;SDS011;38763;53.096;6.062;2023-07-31T06:35:45;24.73;;;5.80;;
52898;SDS011;38763;53.096;6.062;2023-07-31T06:38:11;23.17;;;6.15;;
52898;SDS011;38763;53.096;6.062;2023-07-31T06:40:37;18.60;;;5.97;;
52898;SDS011;38763;53.096;6.062;2023-07-31T06:43:02;25.42;;;6.10;;
52898;SDS011;38763;53.096;6.062;2023-07-31T06:45:35;24.58;;;5.82;;
52898;SDS011;38763;53.096;6.062;2023-07-31T06:48:03;19.08;;;4.97;;
52898;SDS011;38763;53.096;6.062;2023-07-31T06:50:29;20.95;;;5.07;;
52898;SDS011;38763;53.096;6.062;2023-07-31T06:52:56;19.67;;;5.65;;
52898;SDS011;38763;53.096;6.062;2023-07-31T06:55:22;15.02;;;4.47;;
52898;SDS011;38763;53.096;6.062;2023-07-31T06:57:52;10.98;;;3.30;;
52898;SDS011;38763;53.096;6.062;2023-07-31T07:00:19;14.45;;;4.20;;
52898;SDS011;38763;53.096;6.062;2023-07-31T07:02:46;11.18;;;3.00;;
52898;SDS011;38763;53.096;6.062;2023-07-31T07:05:15;10.13;;;3.38;;
52898;SDS011;38763;53.096;6.062;2023-07-31T07:07:42;15.80;;;3.58;;
52898;SDS011;38763;53.096;6.062;2023-07-31T07:10:08;11.23;;;3.28;;
52898;SDS011;38763;53.096;6.062;2023-07-31T07:12:33;11.20;;;3.92;;
52898;SDS011;38763;53.096;6.062;2023-07-31T07:15:00;10.13;;;3.33;;
52898;SDS011;38763;53.096;6.062;2023-07-31T07:17:27;12.10;;;4.22;;
52898;SDS011;38763;53.096;6.062;2023-07-31T07:19:53;12.48;;;4.28;;
52898;SDS011;38763;53.096;6.062;2023-07-31T07:22:19;8.65;;;3.30;;
52898;SDS011;38763;53.096;6.062;2023-07-31T07:24:44;11.07;;;3.58;;
52898;SDS011;38763;53.096;6.062;2023-07-31T07:27:10;8.57;;;2.95;;
52898;SDS011;38763;53.096;6.062;2023-07-31T07:29:37;6.55;;;2.47;;
52898;SDS011;38763;53.096;6.062;2023-07-31T07:32:03;5.38;;;2.08;;
52898;SDS011;38763;53.096;6.062;2023-07-31T07:34:29;6.32;;;1.90;;
52898;SDS011;38763;53.096;6.062;2023-07-31T07:36:55;5.07;;;1.80;;
52898;SDS011;38763;53.096;6.062;2023-07-31T07:39:20;4.53;;;1.75;;
52898;SDS011;38763;53.096;6.062;2023-07-31T07:41:46;3.40;;;1.55;;
52898;SDS011;38763;53.096;6.062;2023-07-31T07:44:13;3.40;;;1.00;;
52898;SDS011;38763;53.096;6.062;2023-07-31T07:46:39;1.25;;;0.70;;
52898;SDS011;38763;53.096;6.062;2023-07-31T07:49:04;2.08;;;0.60;;
52898;SDS011;38763;53.096;6.062;2023-07-31T07:51:30;3.15;;;0.70;;
52898;SDS011;38763;53.096;6.062;2023-07-31T07:53:57;2.10;;;0.63;;
52898;SDS011;38763;53.096;6.062;2023-07-31T07:56:23;2.28;;;0.80;;
52898;SDS011;38763;53.096;6.062;2023-07-31T07:58:49;1.10;;;0.70;;
52898;SDS011;38763;53.096;6.062;2023-07-31T08:01:15;1.42;;;0.70;;
52898;SDS011;38763;53.096;6.062;2023-07-31T08:03:41;1.13;;;0.70;;
52898;SDS011;38763;53.096;6.062;2023-07-31T08:06:07;3.35;;;0.80;;
52898;SDS011;38763;53.096;6.062;2023-07-31T08:08:34;3.10;;;0.80;;
52898;SDS011;38763;53.096;6.062;2023-07-31T08:11:03;1.50;;;0.60;;
52898;SDS011;38763;53.096;6.062;2023-07-31T08:13:29;1.70;;;0.77;;
52898;SDS011;38763;53.096;6.062;2023-07-31T08:15:55;1.85;;;0.77;;
52898;SDS011;38763;53.096;6.062;2023-07-31T08:18:21;0.65;;;0.55;;
52898;SDS011;38763;53.096;6.062;2023-07-31T08:20:46;1.40;;;0.65;;
52898;SDS011;38763;53.096;6.062;2023-07-31T08:23:12;2.15;;;0.63;;
52898;SDS011;38763;53.096;6.062;2023-07-31T08:25:38;1.30;;;0.77;;
52898;SDS011;38763;53.096;6.062;2023-07-31T08:28:04;0.82;;;0.60;;
52898;SDS011;38763;53.096;6.062;2023-07-31T08:30:31;1.48;;;0.60;;
52898;SDS011;38763;53.096;6.062;2023-07-31T08:32:56;2.38;;;0.80;;
52898;SDS011;38763;53.096;6.062;2023-07-31T08:35:24;0.90;;;0.60;;
52898;SDS011;38763;53.096;6.062;2023-07-31T08:37:50;1.52;;;0.60;;
52898;SDS011;38763;53.096;6.062;2023-07-31T08:40:16;1.10;;;0.50;;
52898;SDS011;38763;53.096;6.062;2023-07-31T08:42:45;2.08;;;0.60;;
52898;SDS011;38763;53.096;6.062;2023-07-31T08:45:16;1.48;;;0.60;;
52898;SDS011;38763;53.096;6.062;2023-07-31T08:47:47;2.55;;;0.75;;
52898;SDS011;38763;53.096;6.062;2023-07-31T08:50:13;1.83;;;0.90;;
52898;SDS011;38763;53.096;6.062;2023-07-31T08:52:41;2.45;;;0.90;;
52898;SDS011;38763;53.096;6.062;2023-07-31T08:55:07;1.73;;;1.00;;
52898;SDS011;38763;53.096;6.062;2023-07-31T08:57:37;2.25;;;0.90;;
52898;SDS011;38763;53.096;6.062;2023-07-31T09:00:07;3.22;;;1.20;;
52898;SDS011;38763;53.096;6.062;2023-07-31T09:02:35;3.03;;;1.40;;
52898;SDS011;38763;53.096;6.062;2023-07-31T09:05:06;3.33;;;1.50;;
52898;SDS011;38763;53.096;6.062;2023-07-31T09:07:35;4.95;;;1.48;;
52898;SDS011;38763;53.096;6.062;2023-07-31T09:10:02;5.07;;;1.50;;
52898;SDS011;38763;53.096;6.062;2023-07-31T09:12:28;5.25;;;1.55;;
52898;SDS011;38763;53.096;6.062;2023-07-31T09:14:55;3.60;;;1.30;;
52898;SDS011;38763;53.096;6.062;2023-07-31T09:17:31;2.92;;;1.35;;
52898;SDS011;38763;53.096;6.062;2023-07-31T09:19:57;3.28;;;1.10;;
52898;SDS011;38763;53.096;6.062;2023-07-31T09:22:37;1.55;;;0.90;;
52898;SDS011;38763;53.096;6.062;2023-07-31T09:25:19;2.88;;;0.80;;
52898;SDS011;38763;53.096;6.062;2023-07-31T09:27:50;2.25;;;0.52;;
52898;SDS011;38763;53.096;6.062;2023-07-31T09:30:22;2.90;;;0.75;;
52898;SDS011;38763;53.096;6.062;2023-07-31T09:32:48;1.30;;;0.60;;
52898;SDS011;38763;53.096;6.062;2023-07-31T09:37:40;1.85;;;0.73;;
52898;SDS011;38763;53.096;6.062;2023-07-31T09:40:06;3.30;;;0.70;;
52898;SDS011;38763;53.096;6.062;2023-07-31T09:42:32;2.80;;;0.57;;
52898;SDS011;38763;53.096;6.062;2023-07-31T09:45:08;1.73;;;0.50;;
52898;SDS011;38763;53.096;6.062;2023-07-31T09:47:34;3.72;;;0.70;;
52898;SDS011;38763;53.096;6.062;2023-07-31T09:50:00;1.00;;;0.50;;
52898;SDS011;38763;53.096;6.062;2023-07-31T09:52:26;2.05;;;0.57;;
52898;SDS011;38763;53.096;6.062;2023-07-31T09:54:52;2.08;;;0.60;;
52898;SDS011;38763;53.096;6.062;2023-07-31T09:57:18;1.98;;;0.60;;
52898;SDS011;38763;53.096;6.062;2023-07-31T09:59:47;1.00;;;0.57;;
52898;SDS011;38763;53.096;6.062;2023-07-31T10:02:15;0.93;;;0.52;;
52898;SDS011;38763;53.096;6.062;2023-07-31T10:04:45;1.60;;;0.47;;
52898;SDS011;38763;53.096;6.062;2023-07-31T10:07:16;0.30;;;0.30;;
52898;SDS011;38763;53.096;6.062;2023-07-31T10:09:43;2.45;;;0.40;;
52898;SDS011;38763;53.096;6.062;2023-07-31T10:12:11;2.05;;;0.60;;
52898;SDS011;38763;53.096;6.062;2023-07-31T10:14:39;0.85;;;0.60;;
52898;SDS011;38763;53.096;6.062;2023-07-31T10:17:07;1.60;;;0.52;;
52898;SDS011;38763;53.096;6.062;2023-07-31T10:19:34;1.40;;;0.52;;
52898;SDS011;38763;53.096;6.062;2023-07-31T10:22:00;1.42;;;0.40;;
52898;SDS011;38763;53.096;6.062;2023-07-31T10:24:28;1.35;;;0.50;;
52898;SDS011;38763;53.096;6.062;2023-07-31T10:26:54;1.58;;;0.50;;
52898;SDS011;38763;53.096;6.062;2023-07-31T10:29:24;2.35;;;0.57;;
52898;SDS011;38763;53.096;6.062;2023-07-31T10:31:51;0.95;;;0.60;;
52898;SDS011;38763;53.096;6.062;2023-07-31T10:34:17;1.33;;;0.68;;
52898;SDS011;38763;53.096;6.062;2023-07-31T10:36:43;2.40;;;1.00;;
52898;SDS011;38763;53.096;6.062;2023-07-31T10:42:11;2.80;;;1.05;;
52898;SDS011;38763;53.096;6.062;2023-07-31T10:44:37;2.25;;;1.13;;
52898;SDS011;38763;53.096;6.062;2023-07-31T10:47:08;1.85;;;1.08;;
52898;SDS011;38763;53.096;6.062;2023-07-31T10:49:33;1.10;;;0.55;;
52898;SDS011;38763;53.096;6.062;2023-07-31T10:51:59;2.15;;;0.80;;
52898;SDS011;38763;53.096;6.062;2023-07-31T10:54:29;1.63;;;0.80;;
52898;SDS011;38763;53.096;6.062;2023-07-31T10:56:54;2.40;;;0.90;;
52898;SDS011;38763;53.096;6.062;2023-07-31T10:59:26;3.15;;;0.80;;
52898;SDS011;38763;53.096;6.062;2023-07-31T11:01:53;2.05;;;0.77;;
52898;SDS011;38763;53.096;6.062;2023-07-31T11:04:24;3.10;;;0.80;;
52898;SDS011;38763;53.096;6.062;2023-07-31T11:07:01;2.03;;;0.82;;
52898;SDS011;38763;53.096;6.062;2023-07-31T11:09:31;2.15;;;0.80;;
52898;SDS011;38763;53.096;6.062;2023-07-31T11:11:58;1.75;;;0.80;;
52898;SDS011;38763;53.096;6.062;2023-07-31T11:14:24;1.98;;;0.95;;
52898;SDS011;38763;53.096;6.062;2023-07-31T11:16:50;3.83;;;1.10;;
52898;SDS011;38763;53.096;6.062;2023-07-31T11:19:25;6.03;;;1.25;;
52898;SDS011;38763;53.096;6.062;2023-07-31T11:21:51;8.18;;;1.50;;
52898;SDS011;38763;53.096;6.062;2023-07-31T11:24:18;6.85;;;1.60;;
52898;SDS011;38763;53.096;6.062;2023-07-31T11:26:53;5.93;;;1.50;;
52898;SDS011;38763;53.096;6.062;2023-07-31T11:29:19;5.72;;;1.70;;
52898;SDS011;38763;53.096;6.062;2023-07-31T11:31:46;5.57;;;1.33;;
52898;SDS011;38763;53.096;6.062;2023-07-31T11:34:13;4.40;;;1.60;;
52898;SDS011;38763;53.096;6.062;2023-07-31T11:36:38;6.22;;;1.70;;
52898;SDS011;38763;53.096;6.062;2023-07-31T11:39:07;3.65;;;1.27;;
52898;SDS011;38763;53.096;6.062;2023-07-31T11:41:34;3.67;;;1.45;;
52898;SDS011;38763;53.096;6.062;2023-07-31T11:44:00;6.18;;;1.70;;
52898;SDS011;38763;53.096;6.062;2023-07-31T11:46:27;5.22;;;1.60;;
52898;SDS011;38763;53.096;6.062;2023-07-31T11:48:58;3.85;;;1.60;;
52898;SDS011;38763;53.096;6.062;2023-07-31T11:51:25;4.88;;;1.85;;
52898;SDS011;38763;53.096;6.062;2023-07-31T11:53:52;4.65;;;2.00;;
52898;SDS011;38763;53.096;6.062;2023-07-31T11:56:20;8.32;;;2.33;;
52898;SDS011;38763;53.096;6.062;2023-07-31T11:58:53;7.85;;;2.15;;
52898;SDS011;38763;53.096;6.062;2023-07-31T12:01:22;7.30;;;2.40;;
52898;SDS011;38763;53.096;6.062;2023-07-31T12:03:51;5.38;;;1.95;;
52898;SDS011;38763;53.096;6.062;2023-07-31T12:06:17;8.55;;;2.28;;
52898;SDS011;38763;53.096;6.062;2023-07-31T12:08:45;7.00;;;2.00;;
52898;SDS011;38763;53.096;6.062;2023-07-31T12:11:11;8.20;;;2.58;;
52898;SDS011;38763;53.096;6.062;2023-07-31T12:13:38;8.85;;;2.72;;
52898;SDS011;38763;53.096;6.062;2023-07-31T12:16:04;9.80;;;2.63;;
52898;SDS011;38763;53.096;6.062;2023-07-31T12:18:33;8.48;;;2.33;;
52898;SDS011;38763;53.096;6.062;2023-07-31T12:21:01;8.98;;;2.22;;
52898;SDS011;38763;53.096;6.062;2023-07-31T12:23:28;9.35;;;2.53;;
52898;SDS011;38763;53.096;6.062;2023-07-31T12:26:06;9.10;;;2.15;;
52898;SDS011;38763;53.096;6.062;2023-07-31T12:28:36;7.50;;;2.05;;
52898;SDS011;38763;53.096;6.062;2023-07-31T12:31:05;8.80;;;2.53;;
52898;SDS011;38763;53.096;6.062;2023-07-31T12:33:36;8.90;;;2.50;;
52898;SDS011;38763;53.096;6.062;2023-07-31T12:36:13;11.25;;;2.70;;
52898;SDS011;38763;53.096;6.062;2023-07-31T12:38:41;11.73;;;2.75;;
52898;SDS011;38763;53.096;6.062;2023-07-31T12:41:07;11.70;;;2.45;;
52898;SDS011;38763;53.096;6.062;2023-07-31T12:43:33;12.50;;;2.67;;
52898;SDS011;38763;53.096;6.062;2023-07-31T12:46:03;9.77;;;2.50;;
52898;SDS011;38763;53.096;6.062;2023-07-31T12:48:29;9.50;;;2.53;;
52898;SDS011;38763;53.096;6.062;2023-07-31T12:50:57;13.48;;;2.50;;
52898;SDS011;38763;53.096;6.062;2023-07-31T12:53:22;10.80;;;2.72;;
52898;SDS011;38763;53.096;6.062;2023-07-31T12:55:48;6.85;;;2.45;;
52898;SDS011;38763;53.096;6.062;2023-07-31T12:58:14;5.45;;;2.40;;
52898;SDS011;38763;53.096;6.062;2023-07-31T13:00:39;8.98;;;2.55;;
52898;SDS011;38763;53.096;6.062;2023-07-31T13:03:05;7.78;;;2.10;;
52898;SDS011;38763;53.096;6.062;2023-07-31T13:05:31;8.38;;;2.50;;
52898;SDS011;38763;53.096;6.062;2023-07-31T13:07:56;8.27;;;2.33;;
52898;SDS011;38763;53.096;6.062;2023-07-31T13:10:22;11.13;;;2.75;;
52898;SDS011;38763;53.096;6.062;2023-07-31T13:12:48;10.50;;;2.60;;
52898;SDS011;38763;53.096;6.062;2023-07-31T13:15:15;10.00;;;2.10;;
52898;SDS011;38763;53.096;6.062;2023-07-31T13:17:41;8.07;;;2.70;;
52898;SDS011;38763;53.096;6.062;2023-07-31T13:20:07;6.15;;;2.25;;
52898;SDS011;38763;53.096;6.062;2023-07-31T13:22:33;6.95;;;2.03;;
52898;SDS011;38763;53.096;6.062;2023-07-31T13:24:59;7.82;;;2.22;;
52898;SDS011;38763;53.096;6.062;2023-07-31T13:27:25;8.65;;;2.67;;
52898;SDS011;38763;53.096;6.062;2023-07-31T13:29:51;8.85;;;2.40;;
52898;SDS011;38763;53.096;6.062;2023-07-31T13:32:17;6.70;;;2.30;;
52898;SDS011;38763;53.096;6.062;2023-07-31T13:34:44;7.10;;;2.30;;
52898;SDS011;38763;53.096;6.062;2023-07-31T13:37:10;8.23;;;2.15;;
52898;SDS011;38763;53.096;6.062;2023-07-31T13:39:36;5.78;;;2.00;;
52898;SDS011;38763;53.096;6.062;2023-07-31T13:42:02;9.75;;;2.97;;
52898;SDS011;38763;53.096;6.062;2023-07-31T13:44:28;7.82;;;2.30;;
52898;SDS011;38763;53.096;6.062;2023-07-31T13:46:54;7.53;;;2.38;;
52898;SDS011;38763;53.096;6.062;2023-07-31T13:49:20;8.32;;;3.00;;
52898;SDS011;38763;53.096;6.062;2023-07-31T13:51:45;17.00;;;4.20;;
52898;SDS011;38763;53.096;6.062;2023-07-31T13:54:11;7.65;;;2.75;;
52898;SDS011;38763;53.096;6.062;2023-07-31T13:56:37;11.23;;;3.20;;
52898;SDS011;38763;53.096;6.062;2023-07-31T13:59:03;11.10;;;2.88;;
52898;SDS011;38763;53.096;6.062;2023-07-31T14:01:29;11.73;;;3.13;;
52898;SDS011;38763;53.096;6.062;2023-07-31T14:03:55;11.20;;;3.15;;
52898;SDS011;38763;53.096;6.062;2023-07-31T14:06:21;9.25;;;3.00;;
52898;SDS011;38763;53.096;6.062;2023-07-31T14:08:46;11.95;;;3.25;;
52898;SDS011;38763;53.096;6.062;2023-07-31T14:11:12;10.68;;;3.38;;
52898;SDS011;38763;53.096;6.062;2023-07-31T14:13:38;11.95;;;3.20;;
52898;SDS011;38763;53.096;6.062;2023-07-31T14:16:03;8.38;;;3.25;;
52898;SDS011;38763;53.096;6.062;2023-07-31T14:18:29;7.93;;;2.72;;
52898;SDS011;38763;53.096;6.062;2023-07-31T14:20:55;11.10;;;3.00;;
52898;SDS011;38763;53.096;6.062;2023-07-31T14:23:20;8.90;;;3.25;;
52898;SDS011;38763;53.096;6.062;2023-07-31T14:25:46;8.10;;;2.80;;
52898;SDS011;38763;53.096;6.062;2023-07-31T14:28:12;9.93;;;3.10;;
52898;SDS011;38763;53.096;6.062;2023-07-31T14:30:38;10.18;;;3.10;;
52898;SDS011;38763;53.096;6.062;2023-07-31T14:33:03;11.30;;;3.33;;
52898;SDS011;38763;53.096;6.062;2023-07-31T14:35:29;9.80;;;3.17;;
52898;SDS011;38763;53.096;6.062;2023-07-31T14:37:55;11.25;;;2.90;;
52898;SDS011;38763;53.096;6.062;2023-07-31T14:40:20;10.43;;;3.00;;
52898;SDS011;38763;53.096;6.062;2023-07-31T14:42:46;9.57;;;2.85;;
52898;SDS011;38763;53.096;6.062;2023-07-31T14:45:12;13.15;;;2.97;;
52898;SDS011;38763;53.096;6.062;2023-07-31T14:47:37;8.57;;;2.83;;
52898;SDS011;38763;53.096;6.062;2023-07-31T14:50:03;13.05;;;2.72;;
52898;SDS011;38763;53.096;6.062;2023-07-31T14:52:29;9.73;;;2.50;;
52898;SDS011;38763;53.096;6.062;2023-07-31T14:54:55;11.45;;;2.83;;
52898;SDS011;38763;53.096;6.062;2023-07-31T14:57:20;9.13;;;2.75;;
52898;SDS011;38763;53.096;6.062;2023-07-31T14:59:46;7.45;;;2.50;;